Terminal Aerodrome Forecast
Issued by NWS Corpus Christi, TX

Home | Current Version | Previous Version | Text Only | Print | Product List | Glossary On
Versions: 1 2 3 4 5 6 7 8 9 10 11 12 13
000
FTUS44 KCRP 252324
TAFVCT
TAF
KVCT 252324Z 2600/2624 16015KT P6SM FEW022
     FM260700 17011KT 6SM BR BKN018
     FM261500 18015G22KT P6SM BKN025
     FM261900 16017G23KT P6SM SCT025 BKN250=

USA.gov is the U.S. government's official web portal to all federal, state and local government web resources and services.